Detroit, Michigan
Traffic Map
Current Weather Conditions
Detroit, Michigan
Few Clouds
Few Clouds
-8°
Feels Like: -15°
Wind Chill: -15° Ceiling: Unl
Heat Index: -8° Visibility: 15mi
Dew Point: -15° Wind: 12mph
Humidity: 58% Direction: 360° (N)
Pressure: 30.15in Gusts: 0mph
Raw Report DataCYQG 280300Z 36010KT 15SM FEW050 FEW260 M08/M15 A3015 RMK SC1CI2 SC TR SLP218
Traffic Incident Summary
Active as of:
Severity:
Category:
InformationThere was an issue retrieving the traffic information for this location. Please try a different location or try again shortly.
Advertisements
Track Severe Weather on mobile